Mexico, MO

4:15 PM CDT on August 30, 2015 (GMT -0500)
APRSWXNET | | Change Station
CLOSE
Current Station
Personal Weather Station
Location: Mexico, MO
Elevation: 800 ft
Nearby Weather Stations

Elev 800 ft 39.17 °N, 91.87 °W | Updated 18 minutes ago

Partly Cloudy
Partly Cloudy
86 °F
Feels Like 92 °F
N
0
Wind Variable Wind from ENE
Gusts 7.0 mph

Today
High -- | Low -- °F
--% Chance of Precip.
Yesterday
High -- | Low -- °F
Precip. -- in
6:34 AM 7:41 PM
Full, 98% visible
Pressure 29.98 in
Visibility 10.0 miles
Clouds Few 3700 ft
Few 4500 ft
Heat Index 92 °F
Dew Point 71 °F
Humidity 62%
Rainfall in
Snow Depth Not available.
UV 5 out of 12
Pollen 10.30 out of 12
Air Quality Not available.
Flu Activity Not available.
METAR KCOU 302054Z 11005KT 10SM FEW037 FEW045 29/22 A3000 RMK AO2 SLP151 T02940217 58012
Pressure 29.98 in
Visibility 10.0 miles
Clouds Few 3700 ft
Few 4500 ft
Heat Index 92 °F
Dew Point 71 °F
Humidity 62%
Rainfall in
Snow Depth Not available.
UV 5 out of 12
Pollen 10.30 out of 12
Air Quality Not available.
Flu Activity Not available.
METAR KCOU 302054Z 11005KT 10SM FEW037 FEW045 29/22 A3000 RMK AO2 SLP151 T02940217 58012

10-Day Weather Forecast

×

Almanac

Astronomy

Aug. 30, 2015 Rise Set
Actual Time
Civil Twilight
Nautical Twilight
Astronomical Twilight
Moon
Length of Visible Light
Length of Day
Tomorrow will be .
, % of the Moon is Illuminated

Today's Extremes

State Highs State Lows

Community

WunderPhotos

Upload Photos

1,851,062 photos uploaded!

WunderBlogs® & News

Nearby

Air Quality

  Air Quality AQ Index Pollutant
Not available.

Snow Depth

Station Depth Elevation

Earthquake Activity

City Distance Mag. Time & Date
Minimum magnitude displayed is 2.5.

Coastal Water Temperatures

Place Temperature

Stations

Nearby Weather Stations

Station Location Temp. Windchill Dew Point Humidity Wind Precip. Elev Updated Type